createdAt,value
2023-09-25T00:01:23.195Z,100556.06
2023-09-25T00:03:50.403Z,100552.03
2023-09-25T00:06:17.575Z,100551.53
2023-09-25T00:08:44.530Z,100549.84
2023-09-25T00:11:11.201Z,100545.28
2023-09-25T00:13:37.991Z,100551.63
2023-09-25T00:16:05.382Z,100546.19
2023-09-25T00:18:32.300Z,100550.13
2023-09-25T00:20:59.421Z,100546.88
2023-09-25T00:23:26.220Z,100542.00
2023-09-25T00:26:01.324Z,100540.81
2023-09-25T00:28:28.361Z,100531.78
2023-09-25T00:30:55.228Z,100541.59
2023-09-25T00:33:22.222Z,100541.19
2023-09-25T00:35:49.607Z,100535.50
2023-09-25T00:38:16.522Z,100531.78
2023-09-25T00:40:44.035Z,100529.84
2023-09-25T00:43:14.245Z,100533.47
2023-09-25T00:45:43.206Z,100533.22
2023-09-25T00:48:27.734Z,100538.59
2023-09-25T00:50:59.986Z,100540.41
2023-09-25T00:53:28.576Z,100542.78
2023-09-25T00:55:56.470Z,100545.06
2023-09-25T00:58:24.953Z,100545.38
2023-09-25T01:00:51.980Z,100540.31
2023-09-25T01:03:19.907Z,100540.22
2023-09-25T01:05:47.115Z,100536.41
2023-09-25T01:08:13.979Z,100531.66
2023-09-25T01:10:43.906Z,100527.06
2023-09-25T01:13:11.573Z,100518.13
2023-09-25T01:15:40.390Z,100521.28
2023-09-25T01:18:09.482Z,100517.66
2023-09-25T01:20:37.504Z,100523.34
2023-09-25T01:23:04.772Z,100515.66
2023-09-25T01:25:31.565Z,100516.34
2023-09-25T01:27:58.317Z,100521.09
2023-09-25T01:30:25.231Z,100532.44
2023-09-25T01:32:53.572Z,100525.66
2023-09-25T01:35:24.257Z,100528.03
2023-09-25T01:37:55.636Z,100519.66
2023-09-25T01:40:22.422Z,100522.25
2023-09-25T01:42:49.318Z,100519.88
2023-09-25T01:45:19.513Z,100512.53
2023-09-25T01:47:52.524Z,100510.16
2023-09-25T01:50:21.967Z,100510.16
2023-09-25T01:52:53.146Z,100505.19
2023-09-25T01:55:20.651Z,100502.56
2023-09-25T01:57:47.703Z,100501.56
2023-09-25T02:00:15.042Z,100500.06
2023-09-25T02:02:44.840Z,100498.16
2023-09-25T02:05:12.099Z,100493.41
2023-09-25T02:07:39.087Z,100497.28
2023-09-25T02:10:07.939Z,100492.53
2023-09-25T02:12:35.406Z,100487.69
2023-09-25T02:15:05.798Z,100488.16
2023-09-25T02:17:33.607Z,100482.84
2023-09-25T02:20:20.844Z,100486.47
2023-09-25T02:22:48.795Z,100480.59
2023-09-25T02:25:16.296Z,100475.63
2023-09-25T02:27:43.171Z,100473.22
2023-09-25T02:30:11.631Z,100472.66
2023-09-25T02:32:38.756Z,100470.28
2023-09-25T02:35:06.500Z,100473.09
2023-09-25T02:37:33.690Z,100477.66
2023-09-25T02:40:00.446Z,100476.63
2023-09-25T02:42:27.738Z,100478.22
2023-09-25T02:44:54.398Z,100476.97
2023-09-25T02:47:21.116Z,100481.16
2023-09-25T02:49:47.726Z,100483.06
2023-09-25T02:52:14.610Z,100476.63
2023-09-25T02:54:41.253Z,100477.09
2023-09-25T02:57:08.046Z,100475.50
2023-09-25T02:59:34.776Z,100468.25
2023-09-25T03:02:03.495Z,100466.69
2023-09-25T03:04:30.269Z,100471.88
2023-09-25T03:06:57.952Z,100468.16
2023-09-25T03:09:24.739Z,100457.41
2023-09-25T03:11:51.484Z,100461.81
2023-09-25T03:14:18.136Z,100458.53
2023-09-25T03:16:46.898Z,100463.19
2023-09-25T03:19:14.061Z,100461.81
2023-09-25T03:21:42.812Z,100463.50
2023-09-25T03:24:10.064Z,100455.72
2023-09-25T03:26:38.146Z,100464.41
2023-09-25T03:29:08.306Z,100460.25
2023-09-25T03:31:35.151Z,100458.88
2023-09-25T03:34:02.231Z,100449.28
2023-09-25T03:36:29.231Z,100457.75
2023-09-25T03:38:57.106Z,100446.22
2023-09-25T03:41:23.948Z,100440.03
2023-09-25T03:43:51.356Z,100449.06
2023-09-25T03:46:18.172Z,100456.88
2023-09-25T03:48:48.333Z,100456.06
2023-09-25T03:51:15.927Z,100452.00
2023-09-25T03:53:42.636Z,100441.94
2023-09-25T03:56:09.374Z,100447.81
2023-09-25T03:58:36.063Z,100440.47
2023-09-25T04:01:03.048Z,100442.16
2023-09-25T04:03:32.174Z,100449.84
2023-09-25T04:05:59.526Z,100439.91
2023-09-25T04:08:26.228Z,100447.47
2023-09-25T04:10:53.334Z,100443.31
2023-09-25T04:13:23.631Z,100444.44
2023-09-25T04:15:52.471Z,100449.97
2023-09-25T04:18:20.451Z,100454.72
2023-09-25T04:20:47.722Z,100451.31
2023-09-25T04:23:15.100Z,100437.97
2023-09-25T04:25:42.592Z,100444.75
2023-09-25T04:28:09.647Z,100445.56
2023-09-25T04:30:44.523Z,100440.59
2023-09-25T04:33:11.791Z,100432.31
2023-09-25T04:35:38.744Z,100437.97
2023-09-25T04:38:05.505Z,100438.22
2023-09-25T04:40:32.524Z,100439.44
2023-09-25T04:43:01.414Z,100439.69
2023-09-25T04:45:30.719Z,100438.09
2023-09-25T04:47:58.648Z,100441.25
2023-09-25T04:50:25.745Z,100439.91
2023-09-25T04:52:53.226Z,100443.41
2023-09-25T04:55:19.959Z,100447.03
2023-09-25T04:57:48.058Z,100443.75
2023-09-25T05:00:26.684Z,100437.41
2023-09-25T05:02:58.323Z,100435.38
2023-09-25T05:05:26.216Z,100438.56
2023-09-25T05:07:57.047Z,100433.59
2023-09-25T05:10:29.099Z,100440.13
2023-09-25T05:12:57.110Z,100436.50
2023-09-25T05:15:25.399Z,100436.84
2023-09-25T05:17:52.812Z,100438.66
2023-09-25T05:20:23.937Z,100438.66
2023-09-25T05:22:56.365Z,100446.47
2023-09-25T05:25:24.071Z,100438.78
2023-09-25T05:27:53.659Z,100439.56
2023-09-25T05:30:20.791Z,100440.91
2023-09-25T05:32:52.760Z,100441.47
2023-09-25T05:35:20.464Z,100442.16
2023-09-25T05:37:49.212Z,100440.22
2023-09-25T05:40:16.996Z,100439.53
2023-09-25T05:42:48.628Z,100443.81
2023-09-25T05:45:17.757Z,100442.91
2023-09-25T05:47:46.022Z,100449.00
2023-09-25T05:50:13.404Z,100435.88
2023-09-25T05:52:40.966Z,100440.50
2023-09-25T05:55:08.957Z,100446.34
2023-09-25T05:57:36.106Z,100444.19
2023-09-25T06:00:11.057Z,100441.53
2023-09-25T06:02:39.479Z,100452.59
2023-09-25T06:05:07.464Z,100454.81
2023-09-25T06:07:36.321Z,100451.50
2023-09-25T06:10:05.347Z,100464.84
2023-09-25T06:12:32.850Z,100461.31
2023-09-25T06:14:59.582Z,100465.13
2023-09-25T06:17:28.979Z,100468.44
2023-09-25T06:19:55.820Z,100461.81
2023-09-25T06:22:22.838Z,100460.47
2023-09-25T06:24:52.497Z,100467.34
2023-09-25T06:27:19.201Z,100475.72
2023-09-25T06:29:46.594Z,100475.56
2023-09-25T06:32:13.230Z,100473.56
2023-09-25T06:34:43.080Z,100468.97
2023-09-25T06:37:10.040Z,100468.03
2023-09-25T06:39:36.768Z,100467.94
2023-09-25T06:42:04.661Z,100469.88
2023-09-25T06:44:31.680Z,100453.56
2023-09-25T06:46:58.500Z,100467.53
2023-09-25T06:49:25.465Z,100456.19
2023-09-25T06:51:52.176Z,100465.22
2023-09-25T06:54:19.087Z,100456.94
2023-09-25T06:56:45.823Z,100477.16
2023-09-25T06:59:12.874Z,100454.09
2023-09-25T07:01:39.800Z,100468.13
2023-09-25T07:04:07.731Z,100463.22
2023-09-25T07:06:34.825Z,100460.94
2023-09-25T07:09:01.675Z,100464.44
2023-09-25T07:11:28.516Z,100464.81
2023-09-25T07:13:55.215Z,100462.03
2023-09-25T07:16:22.026Z,100466.78
2023-09-25T07:18:49.422Z,100455.56
2023-09-25T07:21:16.885Z,100459.00
2023-09-25T07:23:44.093Z,100457.75
2023-09-25T07:26:10.833Z,100465.16
2023-09-25T07:28:38.244Z,100460.31
2023-09-25T07:31:07.380Z,100462.56
2023-09-25T07:33:35.736Z,100470.28
2023-09-25T07:36:06.795Z,100458.34
2023-09-25T07:38:33.598Z,100467.53
2023-09-25T07:41:02.679Z,100464.41
2023-09-25T07:46:02.139Z,100468.06
2023-09-25T07:48:31.477Z,100476.47
2023-09-25T07:50:59.628Z,100461.25
2023-09-25T07:53:27.667Z,100462.25
2023-09-25T07:55:54.394Z,100463.78
2023-09-25T07:58:21.173Z,100459.56
2023-09-25T08:00:52.077Z,100452.41
2023-09-25T08:03:23.626Z,100451.28
2023-09-25T08:05:50.697Z,100453.34
2023-09-25T08:08:17.545Z,100449.06
2023-09-25T08:10:48.173Z,100442.94
2023-09-25T08:13:16.598Z,100447.03
2023-09-25T08:15:43.731Z,100451.09
2023-09-25T08:18:10.578Z,100445.47
2023-09-25T08:20:37.401Z,100447.19
2023-09-25T08:23:04.503Z,100446.66
2023-09-25T08:25:31.804Z,100444.66
2023-09-25T08:27:58.959Z,100444.47
2023-09-25T08:30:25.981Z,100442.84
2023-09-25T08:32:54.968Z,100446.44
2023-09-25T08:35:21.904Z,100447.94
2023-09-25T08:37:48.960Z,100449.16
2023-09-25T08:40:16.055Z,100443.47
2023-09-25T08:42:44.136Z,100447.03
2023-09-25T08:45:10.915Z,100447.78
2023-09-25T08:47:40.025Z,100439.75
2023-09-25T08:50:09.787Z,100443.53
2023-09-25T08:52:37.005Z,100444.78
2023-09-25T08:55:05.435Z,100450.41
2023-09-25T08:57:32.344Z,100439.50
2023-09-25T09:00:16.124Z,100446.34
2023-09-25T09:02:45.098Z,100431.38
2023-09-25T09:05:12.881Z,100430.75
2023-09-25T09:07:55.478Z,100427.63
2023-09-25T09:10:22.502Z,100427.00
2023-09-25T09:13:02.677Z,100427.44
2023-09-25T09:15:31.448Z,100423.91
2023-09-25T09:17:59.043Z,100423.50
2023-09-25T09:20:37.566Z,100422.59
2023-09-25T09:23:07.419Z,100416.91
2023-09-25T09:25:34.974Z,100422.97
2023-09-25T09:28:04.897Z,100417.28
2023-09-25T09:30:31.934Z,100415.50
2023-09-25T09:32:58.842Z,100415.19
2023-09-25T09:35:28.693Z,100417.28
2023-09-25T09:37:57.657Z,100416.22
2023-09-25T09:40:26.320Z,100411.53
2023-09-25T09:42:54.358Z,100403.75
2023-09-25T09:45:22.609Z,100413.72
2023-09-25T09:47:52.177Z,100410.84
2023-09-25T09:50:24.098Z,100412.09
2023-09-25T09:52:51.696Z,100405.91
2023-09-25T09:55:21.684Z,100398.22
2023-09-25T09:57:52.030Z,100402.13
2023-09-25T10:00:19.153Z,100396.59
2023-09-25T10:02:47.961Z,100390.88
2023-09-25T10:05:16.325Z,100390.53
2023-09-25T10:08:11.210Z,100397.88
2023-09-25T10:11:17.453Z,100390.69
2023-09-25T10:13:44.294Z,100387.31
2023-09-25T10:16:13.534Z,100384.31
2023-09-25T10:18:42.675Z,100390.91
2023-09-25T10:21:15.373Z,100384.03
2023-09-25T10:23:48.178Z,100384.88
2023-09-25T10:26:21.658Z,100378.88
2023-09-25T10:29:13.281Z,100379.50
2023-09-25T10:31:45.413Z,100374.13
2023-09-25T10:34:12.324Z,100370.69
2023-09-25T10:36:48.953Z,100367.31
2023-09-25T10:39:18.036Z,100376.28
2023-09-25T10:41:48.275Z,100375.00
2023-09-25T10:44:16.344Z,100366.22
2023-09-25T10:46:43.186Z,100364.81
2023-09-25T10:49:10.144Z,100361.94
2023-09-25T10:51:37.405Z,100362.28
2023-09-25T10:54:04.559Z,100359.44
2023-09-25T10:56:31.811Z,100355.44
2023-09-25T10:58:58.842Z,100358.97
2023-09-25T11:01:28.845Z,100347.31
2023-09-25T11:03:58.601Z,100346.69
2023-09-25T11:06:26.535Z,100345.19
2023-09-25T11:09:07.164Z,100345.56
2023-09-25T11:11:33.966Z,100339.00
2023-09-25T11:14:00.845Z,100344.78
2023-09-25T11:16:28.532Z,100343.25
2023-09-25T11:19:12.057Z,100342.84
2023-09-25T11:21:41.071Z,100336.59
2023-09-25T11:24:09.732Z,100343.19
2023-09-25T11:26:40.677Z,100336.28
2023-09-25T11:29:12.006Z,100331.59
2023-09-25T11:31:59.272Z,100326.25
2023-09-25T11:34:27.161Z,100325.13
2023-09-25T11:36:54.513Z,100319.72
2023-09-25T11:39:21.279Z,100306.59
2023-09-25T11:41:47.969Z,100307.78
2023-09-25T11:44:15.501Z,100306.09
2023-09-25T11:46:45.803Z,100313.50
2023-09-25T11:49:13.602Z,100304.78
2023-09-25T11:51:40.766Z,100305.00
2023-09-25T11:54:07.571Z,100309.25
2023-09-25T11:56:34.549Z,100304.22
2023-09-25T11:59:04.234Z,100298.63
2023-09-25T12:01:30.954Z,100288.63
2023-09-25T12:03:58.619Z,100293.16
2023-09-25T12:06:25.932Z,100285.06
2023-09-25T12:08:53.013Z,100289.59
2023-09-25T12:11:19.908Z,100288.81
2023-09-25T12:13:46.555Z,100286.53
2023-09-25T12:16:13.931Z,100284.88
2023-09-25T12:18:40.877Z,100286.47
2023-09-25T12:21:09.987Z,100291.09
2023-09-25T12:23:36.923Z,100284.75
2023-09-25T12:26:03.658Z,100280.44
2023-09-25T12:28:30.550Z,100270.69
2023-09-25T12:30:58.156Z,100273.09
2023-09-25T12:33:25.100Z,100278.19
2023-09-25T12:35:52.556Z,100274.97
2023-09-25T12:38:19.276Z,100277.56
2023-09-25T12:40:46.031Z,100273.53
2023-09-25T12:43:12.797Z,100271.22
2023-09-25T12:45:39.550Z,100269.66
2023-09-25T12:48:07.418Z,100285.81
2023-09-25T12:50:34.885Z,100276.53
2023-09-25T12:53:01.873Z,100279.94
2023-09-25T12:55:32.238Z,100272.34
2023-09-25T12:57:59.548Z,100273.81
2023-09-25T13:00:26.654Z,100279.13
2023-09-25T13:02:54.021Z,100274.53
2023-09-25T13:05:20.715Z,100263.88
2023-09-25T13:07:47.465Z,100265.31
2023-09-25T13:10:14.330Z,100269.06
2023-09-25T13:12:41.100Z,100266.56
2023-09-25T13:15:08.488Z,100257.56
2023-09-25T13:17:36.725Z,100252.63
2023-09-25T13:20:08.405Z,100255.34
2023-09-25T13:22:38.672Z,100249.59
2023-09-25T13:25:06.806Z,100246.75
2023-09-25T13:27:33.773Z,100250.66
2023-09-25T13:30:00.605Z,100248.31
2023-09-25T13:32:27.355Z,100242.00
2023-09-25T13:34:54.066Z,100245.22
2023-09-25T13:37:20.728Z,100245.88
2023-09-25T13:39:48.108Z,100237.41
2023-09-25T13:42:14.830Z,100231.41
2023-09-25T13:44:42.822Z,100238.03
2023-09-25T13:47:11.242Z,100234.47
2023-09-25T13:49:37.832Z,100223.81
2023-09-25T13:52:04.559Z,100226.31
2023-09-25T13:54:31.880Z,100220.63
2023-09-25T13:56:59.374Z,100221.97
2023-09-25T13:59:26.409Z,100216.38
2023-09-25T14:01:53.200Z,100214.25
2023-09-25T14:04:20.240Z,100203.88
2023-09-25T14:06:46.917Z,100204.84
2023-09-25T14:09:13.725Z,100208.66
2023-09-25T14:11:40.788Z,100211.16
2023-09-25T14:14:09.356Z,100207.22
2023-09-25T14:16:36.634Z,100203.03
2023-09-25T14:19:04.150Z,100215.13
2023-09-25T14:21:31.012Z,100208.31
2023-09-25T14:23:57.709Z,100210.25
2023-09-25T14:26:24.308Z,100210.44
2023-09-25T14:28:50.990Z,100205.09
2023-09-25T14:31:19.309Z,100199.34
2023-09-25T14:33:46.263Z,100198.94
2023-09-25T14:36:13.178Z,100195.88
2023-09-25T14:38:39.901Z,100194.50
2023-09-25T14:41:09.196Z,100190.00
2023-09-25T14:43:35.827Z,100199.78
2023-09-25T14:46:02.614Z,100188.13
2023-09-25T14:48:29.642Z,100185.91
2023-09-25T14:50:57.564Z,100186.31
2023-09-25T14:53:24.431Z,100192.41
2023-09-25T14:55:57.008Z,100195.53
2023-09-25T14:58:24.948Z,100192.09
2023-09-25T15:00:59.095Z,100187.00
2023-09-25T15:03:27.406Z,100192.84
2023-09-25T15:05:54.449Z,100195.19
2023-09-25T15:08:24.616Z,100190.16
2023-09-25T15:10:52.437Z,100190.25
2023-09-25T15:13:19.141Z,100188.94
2023-09-25T15:15:45.849Z,100188.97
2023-09-25T15:18:12.600Z,100190.06
2023-09-25T15:20:39.399Z,100191.38
2023-09-25T15:23:06.086Z,100200.81
2023-09-25T15:25:32.688Z,100191.16
2023-09-25T15:27:59.471Z,100189.81
2023-09-25T15:30:26.310Z,100183.28
2023-09-25T15:32:53.560Z,100175.81
2023-09-25T15:35:21.446Z,100181.63
2023-09-25T15:37:48.468Z,100179.84
2023-09-25T15:40:15.542Z,100179.41
2023-09-25T15:42:42.381Z,100177.00
2023-09-25T15:45:09.440Z,100178.44
2023-09-25T15:47:36.212Z,100177.97
2023-09-25T15:50:03.301Z,100177.75
2023-09-25T15:52:29.963Z,100175.16
2023-09-25T15:54:58.825Z,100170.88
2023-09-25T15:57:27.257Z,100176.53
2023-09-25T15:59:54.018Z,100163.59
2023-09-25T16:02:22.049Z,100172.31
2023-09-25T16:04:49.091Z,100169.44
2023-09-25T16:07:15.968Z,100167.94
2023-09-25T16:09:42.779Z,100171.31
2023-09-25T16:12:09.520Z,100170.75
2023-09-25T16:14:36.223Z,100163.91
2023-09-25T16:17:02.864Z,100162.84
2023-09-25T16:19:29.512Z,100161.97
2023-09-25T16:21:56.150Z,100159.31
2023-09-25T16:24:22.853Z,100158.41
2023-09-25T16:26:49.736Z,100159.34
2023-09-25T16:29:16.380Z,100171.72
2023-09-25T16:31:43.096Z,100165.19
2023-09-25T16:34:09.789Z,100169.09
2023-09-25T16:36:36.447Z,100159.59
2023-09-25T16:39:04.736Z,100163.69
2023-09-25T16:41:31.775Z,100165.84
2023-09-25T16:43:58.379Z,100166.91
2023-09-25T16:46:25.302Z,100167.84
2023-09-25T16:48:52.092Z,100168.31
2023-09-25T16:51:18.809Z,100163.44
2023-09-25T16:53:45.669Z,100164.34
2023-09-25T16:56:12.567Z,100168.03
2023-09-25T16:58:39.922Z,100169.69
2023-09-25T17:01:09.437Z,100174.13
2023-09-25T17:03:36.297Z,100181.25
2023-09-25T17:06:03.379Z,100172.31
2023-09-25T17:08:30.342Z,100176.91
2023-09-25T17:10:57.095Z,100181.69
2023-09-25T17:13:25.499Z,100172.44
2023-09-25T17:15:52.285Z,100174.41
2023-09-25T17:18:19.915Z,100163.59
2023-09-25T17:20:46.562Z,100174.72
2023-09-25T17:23:13.228Z,100167.44
2023-09-25T17:25:39.861Z,100163.84
2023-09-25T17:28:07.235Z,100170.13
2023-09-25T17:30:35.738Z,100172.09
2023-09-25T17:33:03.636Z,100174.66
2023-09-25T17:35:31.882Z,100172.25
2023-09-25T17:38:00.614Z,100169.22
2023-09-25T17:40:27.927Z,100169.44
2023-09-25T17:42:54.589Z,100170.69
2023-09-25T17:45:24.117Z,100175.41
2023-09-25T17:47:51.067Z,100183.22
2023-09-25T17:50:18.169Z,100187.81
2023-09-25T17:52:48.660Z,100183.50
2023-09-25T17:55:16.436Z,100178.34
2023-09-25T17:57:44.391Z,100185.75
2023-09-25T18:00:11.462Z,100174.28
2023-09-25T18:02:38.423Z,100182.75
2023-09-25T18:05:05.629Z,100188.13
2023-09-25T18:07:32.420Z,100191.06
2023-09-25T18:09:59.695Z,100187.22
2023-09-25T18:12:26.517Z,100196.09
2023-09-25T18:14:53.260Z,100202.72
2023-09-25T18:17:19.985Z,100191.19
2023-09-25T18:19:46.900Z,100197.69
2023-09-25T18:22:13.522Z,100204.13
2023-09-25T18:24:41.219Z,100208.41
2023-09-25T18:27:08.368Z,100202.34
2023-09-25T18:29:36.748Z,100215.41
2023-09-25T18:32:04.806Z,100211.19
2023-09-25T18:34:31.958Z,100211.97
2023-09-25T18:36:59.010Z,100210.19
2023-09-25T18:39:27.175Z,100204.16
2023-09-25T18:41:55.430Z,100204.50
2023-09-25T18:44:24.185Z,100214.28
2023-09-25T18:46:51.799Z,100204.88
2023-09-25T18:49:19.150Z,100209.72
2023-09-25T18:51:46.182Z,100212.78
2023-09-25T18:54:13.639Z,100211.25
2023-09-25T18:56:40.754Z,100209.97
2023-09-25T18:59:09.287Z,100218.94
2023-09-25T19:01:36.560Z,100221.91
2023-09-25T19:04:04.379Z,100220.09
2023-09-25T19:06:31.202Z,100215.69
2023-09-25T19:08:57.859Z,100221.22
2023-09-25T19:11:27.143Z,100217.88
2023-09-25T19:13:53.800Z,100225.53
2023-09-25T19:16:21.386Z,100219.06
2023-09-25T19:18:49.094Z,100221.75
2023-09-25T19:21:15.732Z,100220.22
2023-09-25T19:23:42.549Z,100227.84
2023-09-25T19:26:09.249Z,100227.34
2023-09-25T19:28:36.225Z,100233.94
2023-09-25T19:31:02.992Z,100228.25
2023-09-25T19:33:53.998Z,100225.16
2023-09-25T19:36:19.616Z,100229.63
2023-09-25T19:38:46.613Z,100235.94
2023-09-25T19:41:13.645Z,100236.50
2023-09-25T19:43:40.225Z,100234.50
2023-09-25T19:46:08.502Z,100227.66
2023-09-25T19:48:36.048Z,100230.06
2023-09-25T19:51:03.142Z,100226.94
2023-09-25T19:53:29.802Z,100229.56
2023-09-25T19:55:56.469Z,100232.47
2023-09-25T19:58:23.347Z,100229.31
2023-09-25T20:00:50.105Z,100224.06
2023-09-25T20:03:17.266Z,100235.69
2023-09-25T20:05:44.499Z,100224.66
2023-09-25T20:08:11.311Z,100225.69
2023-09-25T20:10:38.192Z,100232.56
2023-09-25T20:13:04.895Z,100224.94
2023-09-25T20:15:31.549Z,100216.34
2023-09-25T20:17:58.357Z,100214.59
2023-09-25T20:20:25.439Z,100225.31
2023-09-25T20:22:54.996Z,100219.59
2023-09-25T20:25:22.181Z,100219.88
2023-09-25T20:27:48.798Z,100227.81
2023-09-25T20:30:15.584Z,100232.03
2023-09-25T20:32:42.262Z,100229.94
2023-09-25T20:35:09.465Z,100235.44
2023-09-25T20:37:36.068Z,100230.75
2023-09-25T20:40:03.010Z,100231.34
2023-09-25T20:42:29.718Z,100225.84
2023-09-25T20:44:56.411Z,100223.50
2023-09-25T20:47:23.079Z,100221.13
2023-09-25T20:49:49.749Z,100228.00
2023-09-25T20:52:16.558Z,100227.47
2023-09-25T20:54:43.217Z,100224.63
2023-09-25T20:57:09.888Z,100231.69
2023-09-25T20:59:36.538Z,100222.03
2023-09-25T21:02:03.231Z,100221.75
2023-09-25T21:04:30.017Z,100228.84
2023-09-25T21:06:57.327Z,100226.47
2023-09-25T21:09:24.011Z,100220.16
2023-09-25T21:11:50.629Z,100222.81
2023-09-25T21:14:17.360Z,100217.31
2023-09-25T21:16:44.325Z,100211.31
2023-09-25T21:19:11.128Z,100211.84
2023-09-25T21:21:37.920Z,100208.16
2023-09-25T21:24:05.012Z,100212.41
2023-09-25T21:26:31.922Z,100207.16
2023-09-25T21:28:58.623Z,100214.22
2023-09-25T21:31:26.201Z,100212.16
2023-09-25T21:33:53.827Z,100211.13
2023-09-25T21:36:20.837Z,100205.63
2023-09-25T21:38:49.182Z,100207.47
2023-09-25T21:41:15.880Z,100205.13
2023-09-25T21:43:43.010Z,100202.75
2023-09-25T21:46:10.317Z,100197.00
2023-09-25T21:48:39.525Z,100207.78
2023-09-25T21:51:06.237Z,100208.56
2023-09-25T21:53:32.954Z,100210.16
2023-09-25T21:55:59.725Z,100208.03
2023-09-25T21:58:26.444Z,100213.78
2023-09-25T22:00:53.910Z,100209.59
2023-09-25T22:03:20.836Z,100208.56
2023-09-25T22:05:47.668Z,100210.94
2023-09-25T22:08:14.406Z,100204.41
2023-09-25T22:10:41.066Z,100198.63
2023-09-25T22:13:08.011Z,100206.44
2023-09-25T22:15:34.779Z,100201.91
2023-09-25T22:18:01.688Z,100204.50
2023-09-25T22:20:28.426Z,100200.78
2023-09-25T22:22:55.406Z,100199.75
2023-09-25T22:25:23.129Z,100196.34
2023-09-25T22:27:53.161Z,100202.84
2023-09-25T22:30:20.008Z,100198.47
2023-09-25T22:32:49.351Z,100201.69
2023-09-25T22:35:16.467Z,100204.59
2023-09-25T22:38:06.329Z,100203.88
2023-09-25T22:40:35.045Z,100192.59
2023-09-25T22:43:02.627Z,100195.78
2023-09-25T22:45:30.115Z,100187.16
2023-09-25T22:47:58.838Z,100186.91
2023-09-25T22:50:27.079Z,100189.81
2023-09-25T22:52:54.038Z,100180.41
2023-09-25T22:55:21.893Z,100187.00
2023-09-25T22:57:49.070Z,100181.47
2023-09-25T23:00:20.262Z,100184.38
2023-09-25T23:02:48.052Z,100182.03
2023-09-25T23:05:15.657Z,100182.81
2023-09-25T23:07:49.356Z,100178.38
2023-09-25T23:10:17.195Z,100176.78
2023-09-25T23:12:45.779Z,100178.91
2023-09-25T23:15:14.838Z,100183.63
2023-09-25T23:17:42.890Z,100187.78
2023-09-25T23:20:31.032Z,100191.72
2023-09-25T23:22:57.828Z,100200.13
2023-09-25T23:25:27.467Z,100196.19
2023-09-25T23:27:54.944Z,100186.78
2023-09-25T23:30:22.906Z,100182.84
2023-09-25T23:32:50.892Z,100184.69
2023-09-25T23:35:18.261Z,100188.88
2023-09-25T23:37:47.787Z,100193.59
2023-09-25T23:40:17.522Z,100192.28
2023-09-25T23:42:44.849Z,100185.47
2023-09-25T23:45:15.587Z,100187.06
2023-09-25T23:47:42.675Z,100185.97
2023-09-25T23:50:11.479Z,100184.97
2023-09-25T23:52:40.172Z,100177.09
2023-09-25T23:55:08.370Z,100183.91
2023-09-25T23:57:39.651Z,100188.34
